PDT,Max TemperatureF,Mean TemperatureF,Min TemperatureF,Max Dew PointF,MeanDew PointF,Min DewpointF,Max Humidity, Mean Humidity, Min Humidity, Max Sea Level PressureIn, Mean Sea Level PressureIn, Min Sea Level PressureIn, Max VisibilityMiles, Mean VisibilityMiles, Min VisibilityMiles, Max Wind SpeedMPH, Mean Wind SpeedMPH, Max Gust SpeedMPH,PrecipitationIn, CloudCover, Events, WindDirDegrees
2013-10-1,71,62,53,57,51,46,82,62,46,30.03,29.98,29.93,20,13,10,12,6,,0.00,2,,346
2013-10-2,73,62,50,57,50,41,88,63,40,30.01,29.98,29.94,10,10,10,17,6,,0.00,1,,341
2013-10-3,75,60,46,46,40,36,81,42,24,30.08,30.01,29.95,,,,16,8,,0.00,0,,315
2013-10-4,78,69,60,55,41,32,82,37,20,30.08,30.05,30.02,20,13,10,12,7,,0.00,0,,34
2013-10-5,82,66,51,50,41,32,62,34,19,30.20,30.14,30.09,20,20,20,9,5,,0.00,0,,30
2013-10-6,82,64,46,55,48,34,76,51,25,30.12,30.06,30.00,20,20,20,9,4,,0.00,4,,346
2013-10-7,77,64,50,55,47,39,71,49,31,30.00,29.93,29.88,20,18,15,14,7,,0.00,2,,343
2013-10-8,71,60,48,57,51,46,93,66,46,29.91,29.83,29.75,20,17,10,12,6,,0.00,1,,342
2013-10-9,86,68,50,48,47,41,88,59,27,29.72,29.68,29.65,20,13,10,10,5,,0.00,2,,9
2013-10-10,71,60,50,54,50,45,88,67,46,29.98,29.91,29.84,15,12,10,12,8,,0.00,1,,353
2013-10-11,64,58,51,54,51,48,94,78,68,30.09,30.04,29.99,10,9,8,14,8,,0.00,2,,4
2013-10-12,69,61,53,55,51,45,94,74,46,30.02,29.97,29.92,10,6,4,17,8,,0.00,2,,340
2013-10-13,73,58,44,54,48,43,93,62,36,30.05,30.01,29.98,20,12,10,13,4,,0.00,0,,351
2013-10-14,78,61,44,50,43,39,87,45,24,30.12,30.06,29.99,20,15,10,9,4,,0.00,0,,328
2013-10-15,80,63,46,45,39,36,81,38,20,30.05,30.00,29.94,20,18,15,9,4,,0.00,0,,328
2013-10-16,80,64,48,54,44,37,77,48,21,30.09,30.05,30.02,,,,9,5,,0.00,1,,344
2013-10-17,80,62,44,54,46,39,87,50,26,30.08,30.02,29.96,15,15,15,8,5,,0.00,0,,354
2013-10-18,73,60,46,55,52,41,82,69,53,30.06,30.02,29.98,20,16,10,9,4,,0.00,0,,347
2013-10-19,77,62,46,59,52,45,93,71,36,30.08,30.04,29.99,20,13,8,8,4,,0.00,0,,347
2013-10-20,69,60,51,55,53,48,94,79,60,30.03,29.96,29.92,15,8,0,9,3,,0.00,2,Fog,329
2013-10-21,66,60,53,54,53,52,94,81,64,30.02,29.97,29.92,20,10,5,9,4,,0.00,3,,347
2013-10-22,68,60,53,57,53,52,94,84,64,30.03,29.98,29.93,15,6,3,9,5,,0.00,3,,343
2013-10-23,62,58,53,55,53,52,94,89,72,29.98,29.95,29.91,13,4,1,13,5,,0.00,4,,341
2013-10-24,59,54,50,50,50,48,94,82,72,30.09,30.05,30.01,15,10,4,9,7,,0.00,5,,357
2013-10-25,66,55,44,54,51,43,94,78,64,30.17,30.13,30.09,20,12,7,12,5,,0.00,4,,339
2013-10-26,71,58,44,57,52,43,94,72,53,30.16,30.08,30.01,15,10,7,10,4,,0.00,0,,341
2013-10-27,64,56,48,52,49,46,94,76,56,30.00,29.90,29.75,15,10,7,23,6,24,0.00,6,,304
2013-10-28,62,50,37,48,46,36,93,67,52,30.04,29.77,29.70,20,13,2,14,10,,0.00,5,,299
2013-10-29,62,58,50,50,48,45,82,69,59,30.03,29.98,29.92,20,16,10,14,6,,0.00,5,,339
2013-10-30,68,55,42,52,47,41,93,71,46,30.16,30.12,30.08,15,11,10,13,6,,0.00,1,,342
2013-10-31,73,57,41,50,47,39,93,65,36,30.18,30.12,30.07,20,13,10,12,6,,0.00,0,,347